createdAt,value
2023-05-02T00:01:00.712Z,2
2023-05-02T00:02:06.988Z,1
2023-05-02T00:03:13.244Z,2
2023-05-02T00:04:19.518Z,1
2023-05-02T00:05:25.890Z,2
2023-05-02T00:06:31.074Z,1
2023-05-02T00:07:37.356Z,3
2023-05-02T00:08:43.628Z,3
2023-05-02T00:09:50.019Z,1
2023-05-02T00:10:56.315Z,1
2023-05-02T00:12:02.456Z,0
2023-05-02T00:13:08.736Z,2
2023-05-02T00:14:14.026Z,2
2023-05-02T00:15:19.289Z,1
2023-05-02T00:16:25.575Z,2
2023-05-02T00:17:30.879Z,1
2023-05-02T00:18:36.149Z,0
2023-05-02T00:19:42.469Z,3
2023-05-02T00:20:48.864Z,2
2023-05-02T00:21:54.967Z,1
2023-05-02T00:23:01.256Z,1
2023-05-02T00:24:07.595Z,2
2023-05-02T00:25:13.778Z,0
2023-05-02T00:26:20.058Z,0
2023-05-02T00:27:26.338Z,1
2023-05-02T00:28:32.752Z,2
2023-05-02T00:29:38.888Z,1
2023-05-02T00:30:45.151Z,1
2023-05-02T00:31:51.412Z,2
2023-05-02T00:32:56.831Z,1
2023-05-02T00:34:02.984Z,1
2023-05-02T00:35:09.250Z,0
2023-05-02T00:36:15.521Z,1
2023-05-02T00:37:21.793Z,0
2023-05-02T00:38:28.065Z,0
2023-05-02T00:39:34.333Z,0
2023-05-02T00:40:39.632Z,0
2023-05-02T00:41:44.960Z,0
2023-05-02T00:42:50.217Z,0
2023-05-02T00:43:55.536Z,0
2023-05-02T00:45:01.793Z,0
2023-05-02T00:46:08.069Z,0
2023-05-02T00:47:14.329Z,0
2023-05-02T00:48:20.644Z,0
2023-05-02T00:49:26.872Z,1
2023-05-02T00:50:33.141Z,0
2023-05-02T00:51:39.400Z,3
2023-05-02T00:52:45.687Z,0
2023-05-02T00:53:51.958Z,3
2023-05-02T00:54:58.219Z,0
2023-05-02T00:56:04.496Z,0
2023-05-02T00:57:10.814Z,1
2023-05-02T00:58:16.057Z,1
2023-05-02T00:59:22.349Z,0
2023-05-02T01:00:28.619Z,0
2023-05-02T01:01:34.981Z,0
2023-05-02T01:02:41.209Z,1
2023-05-02T01:03:47.417Z,0
2023-05-02T01:04:53.878Z,-1
2023-05-02T01:05:59.078Z,-2
2023-05-02T01:07:04.284Z,0
2023-05-02T01:08:09.621Z,1
2023-05-02T01:09:14.870Z,0
2023-05-02T01:10:21.147Z,0
2023-05-02T01:11:27.403Z,0
2023-05-02T01:12:33.684Z,0
2023-05-02T01:13:39.957Z,0
2023-05-02T01:14:46.224Z,0
2023-05-02T01:15:52.491Z,0
2023-05-02T01:16:58.760Z,0
2023-05-02T01:18:05.030Z,0
2023-05-02T01:19:11.315Z,0
2023-05-02T01:20:17.630Z,0
2023-05-02T01:21:23.845Z,0
2023-05-02T01:22:30.125Z,0
2023-05-02T01:23:35.473Z,0
2023-05-02T01:24:41.676Z,0
2023-05-02T01:25:47.974Z,0
2023-05-02T01:26:54.222Z,0
2023-05-02T01:28:00.531Z,0
2023-05-02T01:29:06.793Z,0
2023-05-02T01:30:13.140Z,0
2023-05-02T01:31:18.388Z,0
2023-05-02T01:32:23.659Z,0
2023-05-02T01:33:28.982Z,0
2023-05-02T01:34:34.211Z,0
2023-05-02T01:35:40.479Z,0
2023-05-02T01:36:46.754Z,0
2023-05-02T01:37:53.032Z,2
2023-05-02T01:38:59.318Z,0
2023-05-02T01:40:05.590Z,-3
2023-05-02T01:41:11.842Z,0
2023-05-02T01:42:18.128Z,0
2023-05-02T01:43:24.410Z,1
2023-05-02T01:44:30.774Z,0
2023-05-02T01:45:36.936Z,0
2023-05-02T01:46:43.229Z,0
2023-05-02T01:47:49.471Z,0
2023-05-02T01:48:54.778Z,0
2023-05-02T01:50:01.091Z,0
2023-05-02T01:51:07.305Z,0
2023-05-02T01:52:13.619Z,0
2023-05-02T01:53:19.913Z,2
2023-05-02T01:54:26.130Z,0
2023-05-02T01:55:32.398Z,0
2023-05-02T01:56:37.703Z,0
2023-05-02T01:57:42.986Z,0
2023-05-02T01:58:48.377Z,0
2023-05-02T01:59:53.569Z,0
2023-05-02T02:00:59.920Z,0
2023-05-02T02:02:06.117Z,0
2023-05-02T02:03:12.431Z,0
2023-05-02T02:04:18.657Z,0
2023-05-02T02:05:24.941Z,-3
2023-05-02T02:06:31.196Z,0
2023-05-02T02:07:37.494Z,-1
2023-05-02T02:08:43.754Z,0
2023-05-02T02:09:50.174Z,0
2023-05-02T02:10:56.288Z,0
2023-05-02T02:12:02.568Z,0
2023-05-02T02:13:08.838Z,0
2023-05-02T02:14:14.116Z,0
2023-05-02T02:15:20.424Z,-1
2023-05-02T02:16:26.662Z,-1
2023-05-02T02:17:32.947Z,0
2023-05-02T02:18:39.268Z,0
2023-05-02T02:19:45.544Z,0
2023-05-02T02:20:51.756Z,-1
2023-05-02T02:21:57.049Z,-1
2023-05-02T02:23:02.337Z,-1
2023-05-02T02:24:08.746Z,-1
2023-05-02T02:25:14.886Z,0
2023-05-02T02:26:21.301Z,0
2023-05-02T02:27:27.423Z,-1
2023-05-02T02:28:33.870Z,0
2023-05-02T02:29:40.031Z,-1
2023-05-02T02:30:46.270Z,0
2023-05-02T02:31:52.518Z,-1
2023-05-02T02:32:58.789Z,-1
2023-05-02T02:34:05.062Z,0
2023-05-02T02:35:11.368Z,-2
2023-05-02T02:36:17.605Z,-1
2023-05-02T02:37:22.896Z,-2
2023-05-02T02:38:29.225Z,-2
2023-05-02T02:39:35.453Z,-2
2023-05-02T02:40:41.716Z,-1
2023-05-02T02:41:48.084Z,-2
2023-05-02T02:42:54.262Z,-2
2023-05-02T02:44:00.520Z,0
2023-05-02T02:45:05.825Z,0
2023-05-02T02:46:11.119Z,-1
2023-05-02T02:47:16.415Z,-1
2023-05-02T02:48:21.784Z,-2
2023-05-02T02:49:28.032Z,-2
2023-05-02T02:50:34.237Z,-1
2023-05-02T02:51:40.510Z,-1
2023-05-02T02:52:46.798Z,0
2023-05-02T02:53:53.045Z,-2
2023-05-02T02:54:59.356Z,-2
2023-05-02T02:56:05.593Z,-3
2023-05-02T02:57:11.870Z,-3
2023-05-02T02:58:18.145Z,-3
2023-05-02T02:59:24.417Z,-1
2023-05-02T03:00:30.747Z,-2
2023-05-02T03:01:36.975Z,-2
2023-05-02T03:02:42.274Z,-2
2023-05-02T03:03:48.512Z,-1
2023-05-02T03:04:54.785Z,-3
2023-05-02T03:06:01.073Z,-1
2023-05-02T03:07:07.331Z,-2
2023-05-02T03:08:13.602Z,-3
2023-05-02T03:09:19.881Z,-3
2023-05-02T03:10:25.324Z,-3
2023-05-02T03:11:30.567Z,-2
2023-05-02T03:12:35.805Z,-2
2023-05-02T03:13:41.053Z,-2
2023-05-02T03:14:47.347Z,-3
2023-05-02T03:15:52.629Z,-3
2023-05-02T03:16:58.053Z,-2
2023-05-02T03:18:04.201Z,-2
2023-05-02T03:19:10.479Z,-3
2023-05-02T03:20:16.729Z,-3
2023-05-02T03:21:22.993Z,-3
2023-05-02T03:22:29.274Z,-3
2023-05-02T03:23:35.558Z,-3
2023-05-02T03:24:41.878Z,-3
2023-05-02T03:25:48.101Z,-3
2023-05-02T03:26:53.529Z,-2
2023-05-02T03:27:59.652Z,-3
2023-05-02T03:29:05.923Z,-2
2023-05-02T03:30:12.223Z,-2
2023-05-02T03:31:18.488Z,-2
2023-05-02T03:32:24.742Z,-3
2023-05-02T03:33:31.026Z,-2
2023-05-02T03:34:37.312Z,-1
2023-05-02T03:35:43.567Z,-3
2023-05-02T03:36:49.829Z,-3
2023-05-02T03:37:56.138Z,-2
2023-05-02T03:39:01.423Z,-3
2023-05-02T03:40:06.799Z,-3
2023-05-02T03:41:12.012Z,-3
2023-05-02T03:42:17.276Z,-3
2023-05-02T03:43:23.569Z,-3
2023-05-02T03:44:29.816Z,-3
2023-05-02T03:45:36.098Z,-3
2023-05-02T03:46:42.364Z,-3
2023-05-02T03:47:48.660Z,-5
2023-05-02T03:48:54.925Z,-4
2023-05-02T03:50:01.182Z,-3
2023-05-02T03:51:07.453Z,-3
2023-05-02T03:52:13.728Z,-3
2023-05-02T03:53:20.012Z,-3
2023-05-02T03:54:26.276Z,-3
2023-05-02T03:55:32.547Z,-3
2023-05-02T03:56:37.844Z,-3
2023-05-02T03:57:44.102Z,-3
2023-05-02T03:58:50.380Z,-4
2023-05-02T03:59:56.650Z,-5
2023-05-02T04:01:02.954Z,-6
2023-05-02T04:02:09.189Z,-3
2023-05-02T04:03:15.498Z,-3
2023-05-02T04:04:20.766Z,-3
2023-05-02T04:05:26.059Z,-3
2023-05-02T04:06:32.324Z,-3
2023-05-02T04:07:38.595Z,-3
2023-05-02T04:08:44.871Z,-4
2023-05-02T04:09:51.177Z,-4
2023-05-02T04:10:57.407Z,-3
2023-05-02T04:12:03.731Z,-4
2023-05-02T04:13:10.051Z,-3
2023-05-02T04:14:16.251Z,-4
2023-05-02T04:15:22.549Z,-3
2023-05-02T04:16:28.884Z,-5
2023-05-02T04:17:35.053Z,-4
2023-05-02T04:18:41.373Z,-4
2023-05-02T04:19:46.687Z,-3
2023-05-02T04:20:52.996Z,-3
2023-05-02T04:21:59.155Z,-6
2023-05-02T04:23:05.446Z,-4
2023-05-02T04:24:11.797Z,-3
2023-05-02T04:25:17.961Z,-3
2023-05-02T04:26:24.323Z,-5
2023-05-02T04:27:29.560Z,-4
2023-05-02T04:28:34.834Z,-4
2023-05-02T04:29:40.212Z,-3
2023-05-02T04:30:45.408Z,-4
2023-05-02T04:31:51.711Z,-3
2023-05-02T04:32:57.957Z,-5
2023-05-02T04:34:04.266Z,-4
2023-05-02T04:35:10.569Z,-4
2023-05-02T04:36:16.806Z,-4
2023-05-02T04:37:23.059Z,-5
2023-05-02T04:38:29.310Z,-3
2023-05-02T04:39:35.608Z,-5
2023-05-02T04:40:41.909Z,-4
2023-05-02T04:41:48.130Z,-5
2023-05-02T04:42:54.608Z,-6
2023-05-02T04:44:00.763Z,-4
2023-05-02T04:45:05.981Z,-6
2023-05-02T04:46:12.295Z,-6
2023-05-02T04:47:18.506Z,-2
2023-05-02T04:48:24.803Z,-4
2023-05-02T04:49:31.046Z,-3
2023-05-02T04:50:37.415Z,-6
2023-05-02T04:51:43.596Z,-4
2023-05-02T04:52:49.241Z,-6
2023-05-02T04:53:54.184Z,-5
2023-05-02T04:54:59.636Z,-4
2023-05-02T04:56:04.921Z,-4
2023-05-02T04:57:11.042Z,-5
2023-05-02T04:58:17.378Z,-5
2023-05-02T04:59:23.597Z,-3
2023-05-02T05:00:29.904Z,-5
2023-05-02T05:01:36.326Z,-3
2023-05-02T05:02:42.470Z,-5
2023-05-02T05:03:48.670Z,-5
2023-05-02T05:04:55.101Z,-5
2023-05-02T05:06:01.362Z,-5
2023-05-02T05:07:07.492Z,-5
2023-05-02T05:08:13.764Z,-4
2023-05-02T05:09:20.042Z,-5
2023-05-02T05:10:25.380Z,-3
2023-05-02T05:11:31.749Z,-3
2023-05-02T05:12:37.913Z,-4
2023-05-02T05:13:44.140Z,-4
2023-05-02T05:14:50.442Z,-3
2023-05-02T05:15:56.681Z,-3
2023-05-02T05:17:03.002Z,-4
2023-05-02T05:18:08.302Z,-5
2023-05-02T05:19:13.602Z,-5
2023-05-02T05:20:19.815Z,-4
2023-05-02T05:21:26.096Z,-5
2023-05-02T05:22:32.355Z,-5
2023-05-02T05:23:38.639Z,-4
2023-05-02T05:24:44.896Z,-5
2023-05-02T05:25:51.240Z,-6
2023-05-02T05:26:57.443Z,-4
2023-05-02T05:28:03.711Z,-5
2023-05-02T05:29:09.995Z,-4
2023-05-02T05:30:16.246Z,-4
2023-05-02T05:31:22.651Z,-4
2023-05-02T05:32:28.850Z,-5
2023-05-02T05:33:34.094Z,-4
2023-05-02T05:34:40.515Z,-5
2023-05-02T05:35:46.734Z,-5
2023-05-02T05:36:52.967Z,-5
2023-05-02T05:37:59.199Z,-6
2023-05-02T05:39:05.502Z,-4
2023-05-02T05:40:11.812Z,-4
2023-05-02T05:41:17.146Z,-4
2023-05-02T05:42:22.303Z,-3
2023-05-02T05:43:27.688Z,-3
2023-05-02T05:44:33.048Z,-2
2023-05-02T05:45:39.165Z,-6
2023-05-02T05:46:45.439Z,-4
2023-05-02T05:47:51.712Z,-3
2023-05-02T05:48:57.992Z,-3
2023-05-02T05:50:04.258Z,-3
2023-05-02T05:51:10.565Z,-6
2023-05-02T05:52:16.792Z,-5
2023-05-02T05:53:23.073Z,-6
2023-05-02T05:54:29.360Z,-4
2023-05-02T05:55:35.622Z,-3
2023-05-02T05:56:41.890Z,-4
2023-05-02T05:57:48.165Z,-4
2023-05-02T05:58:53.498Z,-5
2023-05-02T05:59:59.803Z,-4
2023-05-02T06:01:06.003Z,-5
2023-05-02T06:02:12.269Z,-3
2023-05-02T06:03:18.683Z,-5
2023-05-02T06:04:24.799Z,-3
2023-05-02T06:05:31.136Z,-2
2023-05-02T06:06:37.384Z,-2
2023-05-02T06:07:43.959Z,-2
2023-05-02T06:08:50.034Z,-3
2023-05-02T06:09:56.433Z,-3
2023-05-02T06:11:02.553Z,-2
2023-05-02T06:12:08.708Z,-3
2023-05-02T06:13:14.007Z,-3
2023-05-02T06:14:20.452Z,-3
2023-05-02T06:15:26.654Z,-3
2023-05-02T06:16:33.138Z,-2
2023-05-02T06:17:39.143Z,-3
2023-05-02T06:18:45.374Z,-3
2023-05-02T06:19:51.764Z,-3
2023-05-02T06:20:57.982Z,-3
2023-05-02T06:22:04.270Z,-3
2023-05-02T06:23:10.446Z,-3
2023-05-02T06:24:16.798Z,-3
2023-05-02T06:25:23.187Z,-3
2023-05-02T06:26:29.456Z,-3
2023-05-02T06:27:34.550Z,-2
2023-05-02T06:28:40.822Z,-3
2023-05-02T06:29:47.191Z,-4
2023-05-02T06:30:53.429Z,-1
2023-05-02T06:31:59.690Z,-3
2023-05-02T06:33:06.025Z,-2
2023-05-02T06:34:12.175Z,-3
2023-05-02T06:35:18.486Z,-3
2023-05-02T06:36:24.720Z,-3
2023-05-02T06:37:30.993Z,0
2023-05-02T06:38:37.325Z,-2
2023-05-02T06:39:43.649Z,-2
2023-05-02T06:40:49.932Z,-2
2023-05-02T06:41:55.108Z,-3
2023-05-02T06:43:01.374Z,-2
2023-05-02T06:44:07.647Z,-2
2023-05-02T06:45:13.959Z,-3
2023-05-02T06:46:20.189Z,-3
2023-05-02T06:47:26.512Z,-1
2023-05-02T06:48:32.792Z,-1
2023-05-02T06:49:39.040Z,-1
2023-05-02T06:50:45.373Z,-3
2023-05-02T06:51:51.620Z,0
2023-05-02T06:52:57.818Z,0
2023-05-02T06:54:04.108Z,0
2023-05-02T06:55:10.359Z,0
2023-05-02T06:56:15.660Z,0
2023-05-02T06:57:21.940Z,0
2023-05-02T06:58:28.325Z,0
2023-05-02T06:59:34.514Z,-2
2023-05-02T07:00:40.741Z,0
2023-05-02T07:01:47.034Z,0
2023-05-02T07:02:53.296Z,0
2023-05-02T07:03:59.577Z,0
2023-05-02T07:05:05.835Z,0
2023-05-02T07:06:12.097Z,0
2023-05-02T07:07:18.383Z,1
2023-05-02T07:08:24.644Z,0
2023-05-02T07:09:29.932Z,0
2023-05-02T07:10:36.304Z,0
2023-05-02T07:11:42.542Z,0
2023-05-02T07:12:48.835Z,1
2023-05-02T07:13:55.019Z,0
2023-05-02T07:15:01.357Z,0
2023-05-02T07:16:07.559Z,0
2023-05-02T07:17:13.832Z,0
2023-05-02T07:18:20.108Z,0
2023-05-02T07:19:26.390Z,0
2023-05-02T07:20:32.689Z,0
2023-05-02T07:21:38.930Z,1
2023-05-02T07:22:45.213Z,-1
2023-05-02T07:23:50.581Z,1
2023-05-02T07:24:56.751Z,0
2023-05-02T07:26:03.161Z,0
2023-05-02T07:27:09.345Z,0
2023-05-02T07:28:15.579Z,0
2023-05-02T07:29:21.854Z,1
2023-05-02T07:30:28.128Z,0
2023-05-02T07:31:34.424Z,1
2023-05-02T07:32:40.704Z,0
2023-05-02T07:33:46.941Z,1
2023-05-02T07:34:53.209Z,1
2023-05-02T07:35:59.473Z,0
2023-05-02T07:37:05.757Z,1
2023-05-02T07:38:11.035Z,-3
2023-05-02T07:39:17.358Z,0
2023-05-02T07:40:23.583Z,2
2023-05-02T07:41:29.903Z,2
2023-05-02T07:42:36.132Z,1
2023-05-02T07:43:42.431Z,1
2023-05-02T07:44:48.674Z,1
2023-05-02T07:45:54.938Z,1
2023-05-02T07:47:01.217Z,3
2023-05-02T07:48:07.495Z,3
2023-05-02T07:49:13.775Z,0
2023-05-02T07:50:20.032Z,1
2023-05-02T07:51:26.370Z,1
2023-05-02T07:52:31.745Z,0
2023-05-02T07:53:37.859Z,3
2023-05-02T07:54:44.131Z,0
2023-05-02T07:55:50.487Z,3
2023-05-02T07:56:56.678Z,1
2023-05-02T07:58:02.948Z,2
2023-05-02T07:59:09.249Z,1
2023-05-02T08:00:15.489Z,3
2023-05-02T08:01:21.870Z,2
2023-05-02T08:02:28.037Z,3
2023-05-02T08:03:34.311Z,0
2023-05-02T08:04:40.586Z,2
2023-05-02T08:05:46.918Z,3
2023-05-02T08:06:52.198Z,3
2023-05-02T08:07:58.413Z,3
2023-05-02T08:09:04.775Z,3
2023-05-02T08:10:11.144Z,3
2023-05-02T08:11:17.337Z,3
2023-05-02T08:12:23.699Z,3
2023-05-02T08:13:29.834Z,5
2023-05-02T08:14:36.137Z,5
2023-05-02T08:15:42.369Z,4
2023-05-02T08:16:48.716Z,4
2023-05-02T08:17:54.865Z,4
2023-05-02T08:19:01.185Z,3
2023-05-02T08:20:07.406Z,3
2023-05-02T08:21:12.828Z,3
2023-05-02T08:22:19.033Z,4
2023-05-02T08:23:25.236Z,3
2023-05-02T08:24:30.540Z,4
2023-05-02T08:25:35.830Z,6
2023-05-02T08:26:42.119Z,2
2023-05-02T08:27:48.362Z,3
2023-05-02T08:28:54.772Z,4
2023-05-02T08:30:00.006Z,5
2023-05-02T08:31:05.220Z,4
2023-05-02T08:32:11.529Z,4
2023-05-02T08:33:17.842Z,4
2023-05-02T08:34:24.060Z,3
2023-05-02T08:36:36.587Z,5
2023-05-02T08:37:42.854Z,5
2023-05-02T08:38:49.188Z,3
2023-05-02T08:39:55.494Z,3
2023-05-02T08:41:01.679Z,5
2023-05-02T08:42:07.938Z,4
2023-05-02T08:43:14.445Z,6
2023-05-02T08:44:20.478Z,6
2023-05-02T08:45:25.768Z,5
2023-05-02T08:46:32.458Z,5
2023-05-02T08:47:38.542Z,6
2023-05-02T08:48:44.704Z,6
2023-05-02T08:49:50.949Z,6
2023-05-02T08:50:57.158Z,6
2023-05-02T08:52:03.527Z,6
2023-05-02T08:53:09.876Z,6
2023-05-02T08:54:15.119Z,6
2023-05-02T08:55:20.416Z,6
2023-05-02T08:56:25.763Z,6
2023-05-02T08:57:31.026Z,5
2023-05-02T08:58:37.170Z,7
2023-05-02T08:59:43.383Z,2
2023-05-02T09:00:49.839Z,6
2023-05-02T09:01:56.157Z,7
2023-05-02T09:03:02.384Z,8
2023-05-02T09:04:08.470Z,6
2023-05-02T09:05:14.794Z,8
2023-05-02T09:06:21.180Z,8
2023-05-02T09:07:27.421Z,7
2023-05-02T09:08:33.646Z,7
2023-05-02T09:09:40.043Z,8
2023-05-02T09:10:46.122Z,7
2023-05-02T09:11:51.463Z,8
2023-05-02T09:12:57.896Z,7
2023-05-02T09:14:04.208Z,7
2023-05-02T09:15:10.199Z,6
2023-05-02T09:16:16.666Z,6
2023-05-02T09:17:22.941Z,8
2023-05-02T09:18:29.021Z,8
2023-05-02T09:19:34.331Z,9
2023-05-02T09:20:39.804Z,9
2023-05-02T09:21:46.085Z,9
2023-05-02T09:22:51.427Z,9
2023-05-02T09:23:56.705Z,8
2023-05-02T09:26:09.062Z,7
2023-05-02T09:27:15.463Z,8
2023-05-02T09:28:21.596Z,9
2023-05-02T09:29:28.010Z,8
2023-05-02T09:30:34.097Z,8
2023-05-02T09:31:40.499Z,7
2023-05-02T09:32:46.835Z,9
2023-05-02T09:33:53.099Z,8
2023-05-02T09:34:59.337Z,8
2023-05-02T09:36:05.505Z,8
2023-05-02T09:37:11.934Z,7
2023-05-02T09:38:17.191Z,8
2023-05-02T09:39:23.413Z,8
2023-05-02T09:40:29.634Z,9
2023-05-02T09:41:35.999Z,8
2023-05-02T09:42:42.126Z,9
2023-05-02T09:43:48.574Z,10
2023-05-02T09:44:54.793Z,7
2023-05-02T09:46:01.138Z,6
2023-05-02T09:47:06.390Z,9
2023-05-02T09:48:11.667Z,9
2023-05-02T09:49:17.990Z,9
2023-05-02T09:50:23.306Z,10
2023-05-02T09:51:28.507Z,11
2023-05-02T09:52:34.784Z,12
2023-05-02T09:53:41.066Z,13
2023-05-02T09:54:47.379Z,12
2023-05-02T09:55:53.621Z,12
2023-05-02T09:56:59.946Z,12
2023-05-02T09:58:06.240Z,12
2023-05-02T09:59:12.401Z,12
2023-05-02T10:00:18.705Z,13
2023-05-02T10:01:24.938Z,12
2023-05-02T10:02:31.323Z,12
2023-05-02T10:03:37.474Z,14
2023-05-02T10:04:43.804Z,12
2023-05-02T10:05:49.180Z,12
2023-05-02T10:06:55.386Z,11
2023-05-02T10:08:01.655Z,12
2023-05-02T10:09:07.894Z,12
2023-05-02T10:10:14.085Z,13
2023-05-02T10:11:20.445Z,12
2023-05-02T10:12:26.829Z,12
2023-05-02T10:13:33.059Z,11
2023-05-02T10:15:45.550Z,12
2023-05-02T10:16:51.858Z,12
2023-05-02T10:17:57.109Z,12
2023-05-02T10:19:02.492Z,12
2023-05-02T10:20:07.699Z,11
2023-05-02T10:21:12.966Z,11
2023-05-02T10:22:19.294Z,11
2023-05-02T10:23:25.509Z,11
2023-05-02T10:24:31.621Z,12
2023-05-02T10:25:38.063Z,12
2023-05-02T10:26:44.346Z,12
2023-05-02T10:27:50.582Z,12
2023-05-02T10:28:56.898Z,12
2023-05-02T10:30:03.145Z,12
2023-05-02T10:31:09.301Z,12
2023-05-02T10:32:15.595Z,12
2023-05-02T10:33:21.943Z,12
2023-05-02T10:34:28.251Z,12
2023-05-02T10:35:33.582Z,12
2023-05-02T10:36:39.626Z,12
2023-05-02T10:37:46.072Z,12
2023-05-02T10:38:52.330Z,13
2023-05-02T10:39:58.641Z,12
2023-05-02T10:41:04.947Z,12
2023-05-02T10:42:11.222Z,13
2023-05-02T10:43:16.435Z,12
2023-05-02T10:44:21.632Z,12
2023-05-02T10:45:27.044Z,13
2023-05-02T10:46:32.261Z,14
2023-05-02T10:47:38.522Z,13
2023-05-02T10:48:44.702Z,13
2023-05-02T10:49:50.994Z,12
2023-05-02T10:50:56.294Z,12
2023-05-02T10:52:02.695Z,13
2023-05-02T10:53:08.937Z,13
2023-05-02T10:54:15.208Z,13
2023-05-02T10:55:21.378Z,12
2023-05-02T10:56:27.671Z,15
2023-05-02T10:57:34.048Z,15
2023-05-02T10:58:40.364Z,16
2023-05-02T10:59:46.597Z,14
2023-05-02T11:00:52.882Z,15
2023-05-02T11:01:59.112Z,15
2023-05-02T11:03:05.262Z,15
2023-05-02T11:04:11.741Z,15
2023-05-02T11:05:17.062Z,15
2023-05-02T11:06:23.303Z,15
2023-05-02T11:07:29.439Z,13
2023-05-02T11:08:34.805Z,15
2023-05-02T11:09:40.127Z,17
2023-05-02T11:10:46.406Z,17
2023-05-02T11:11:51.670Z,18
2023-05-02T11:12:57.050Z,18
2023-05-02T11:14:03.254Z,18
2023-05-02T11:15:09.354Z,16
2023-05-02T11:16:15.780Z,18
2023-05-02T11:17:22.129Z,18
2023-05-02T11:18:28.367Z,18
2023-05-02T11:19:34.602Z,18
2023-05-02T11:20:40.778Z,19
2023-05-02T11:21:47.029Z,19
2023-05-02T11:22:53.279Z,19
2023-05-02T11:23:59.526Z,19
2023-05-02T11:25:06.005Z,20
2023-05-02T11:26:12.217Z,18
2023-05-02T11:27:17.445Z,19
2023-05-02T11:28:23.629Z,19
2023-05-02T11:29:30.026Z,19
2023-05-02T11:30:36.333Z,18
2023-05-02T11:31:42.489Z,19
2023-05-02T11:32:48.902Z,17
2023-05-02T11:33:55.235Z,17
2023-05-02T11:35:00.465Z,18
2023-05-02T11:36:05.618Z,17
2023-05-02T11:37:11.060Z,17
2023-05-02T11:38:16.325Z,18
2023-05-02T11:39:22.431Z,16
2023-05-02T11:40:28.919Z,17
2023-05-02T11:41:35.132Z,16
2023-05-02T11:42:41.470Z,17
2023-05-02T11:43:47.752Z,16
2023-05-02T11:44:53.880Z,18
2023-05-02T11:46:00.069Z,16
2023-05-02T11:47:06.491Z,17
2023-05-02T11:48:12.791Z,18
2023-05-02T11:49:19.051Z,17
2023-05-02T11:50:25.330Z,18
2023-05-02T11:51:31.417Z,18
2023-05-02T11:52:36.880Z,20
2023-05-02T11:53:43.162Z,20
2023-05-02T11:54:49.297Z,21
2023-05-02T11:55:55.751Z,19
2023-05-02T11:57:01.805Z,19
2023-05-02T11:58:08.226Z,19
2023-05-02T11:59:14.477Z,18
2023-05-02T12:00:19.860Z,19
2023-05-02T12:01:26.096Z,16
2023-05-02T12:02:31.369Z,17
2023-05-02T12:03:36.649Z,17
2023-05-02T12:04:42.853Z,18
2023-05-02T12:05:49.196Z,17
2023-05-02T12:06:55.454Z,19
2023-05-02T12:08:01.806Z,17
2023-05-02T12:09:07.972Z,17
2023-05-02T12:10:14.232Z,16
2023-05-02T12:11:20.578Z,16
2023-05-02T12:12:26.855Z,15
2023-05-02T12:13:33.114Z,15
2023-05-02T12:14:39.401Z,15
2023-05-02T12:15:45.624Z,14
2023-05-02T12:16:51.886Z,15
2023-05-02T12:17:57.226Z,12
2023-05-02T12:19:03.437Z,15
2023-05-02T12:20:09.607Z,15
2023-05-02T12:21:16.036Z,14
2023-05-02T12:22:22.303Z,15
2023-05-02T12:23:28.653Z,15
2023-05-02T12:24:34.945Z,16
2023-05-02T12:25:40.156Z,15
2023-05-02T12:26:45.418Z,16
2023-05-02T12:27:51.691Z,16
2023-05-02T12:28:57.975Z,17
2023-05-02T12:30:04.126Z,17
2023-05-02T12:31:10.569Z,18
2023-05-02T12:32:16.832Z,18
2023-05-02T12:33:23.084Z,19
2023-05-02T12:34:29.349Z,20
2023-05-02T12:35:35.624Z,21
2023-05-02T12:36:41.704Z,18
2023-05-02T12:37:48.002Z,19
2023-05-02T12:38:54.248Z,21
2023-05-02T12:40:00.726Z,21
2023-05-02T12:41:05.986Z,21
2023-05-02T12:42:12.304Z,22
2023-05-02T12:43:18.560Z,23
2023-05-02T12:44:24.791Z,22
2023-05-02T12:45:31.036Z,21
2023-05-02T12:46:37.286Z,21
2023-05-02T12:47:43.453Z,20
2023-05-02T12:48:49.894Z,19
2023-05-02T12:49:55.175Z,20
2023-05-02T12:51:00.540Z,20
2023-05-02T12:52:05.781Z,21
2023-05-02T12:53:11.066Z,18
2023-05-02T12:54:16.411Z,19
2023-05-02T12:55:21.648Z,19
2023-05-02T12:56:27.934Z,18
2023-05-02T12:57:34.192Z,19
2023-05-02T12:58:40.460Z,19
2023-05-02T12:59:46.570Z,19
2023-05-02T13:00:52.928Z,19
2023-05-02T13:01:59.289Z,18
2023-05-02T13:03:05.551Z,19
2023-05-02T13:04:11.816Z,21
2023-05-02T13:05:17.956Z,21
2023-05-02T13:06:24.390Z,21
2023-05-02T13:07:30.686Z,22
2023-05-02T13:08:36.901Z,23
2023-05-02T13:09:42.254Z,22
2023-05-02T13:10:48.448Z,21
2023-05-02T13:11:54.742Z,23
2023-05-02T13:13:01.048Z,24
2023-05-02T13:14:07.306Z,24
2023-05-02T13:15:13.487Z,24
2023-05-02T13:16:19.697Z,23
2023-05-02T13:17:25.131Z,22
2023-05-02T13:18:30.259Z,22
2023-05-02T13:19:36.554Z,21
2023-05-02T13:20:42.029Z,21
2023-05-02T13:21:47.319Z,22
2023-05-02T13:22:53.636Z,21
2023-05-02T13:23:59.789Z,22
2023-05-02T13:25:06.095Z,21
2023-05-02T13:26:12.365Z,22
2023-05-02T13:27:18.645Z,21
2023-05-02T13:28:24.909Z,21
2023-05-02T13:29:31.149Z,23
2023-05-02T13:30:37.347Z,21
2023-05-02T13:31:43.716Z,21
2023-05-02T13:32:49.991Z,21
2023-05-02T13:33:56.326Z,21
2023-05-02T13:35:02.567Z,22
2023-05-02T13:36:07.832Z,23
2023-05-02T13:37:14.116Z,25
2023-05-02T13:38:20.371Z,25
2023-05-02T13:39:26.663Z,28
2023-05-02T13:40:32.954Z,28
2023-05-02T13:41:39.150Z,28
2023-05-02T13:42:45.464Z,28
2023-05-02T13:43:50.775Z,27
2023-05-02T13:44:56.064Z,26
2023-05-02T13:46:01.357Z,25
2023-05-02T13:47:06.671Z,24
2023-05-02T13:48:12.764Z,23
2023-05-02T13:50:25.463Z,22
2023-05-02T13:51:31.746Z,24
2023-05-02T13:52:38.014Z,21
2023-05-02T13:53:44.086Z,21
2023-05-02T13:54:50.614Z,21
2023-05-02T13:55:56.841Z,21
2023-05-02T13:57:03.100Z,21
2023-05-02T13:58:09.359Z,21
2023-05-02T13:59:15.634Z,20
2023-05-02T14:00:21.824Z,20
2023-05-02T14:01:27.176Z,21
2023-05-02T14:02:33.520Z,21
2023-05-02T14:03:39.736Z,21
2023-05-02T14:04:46.033Z,21
2023-05-02T14:05:52.236Z,18
2023-05-02T14:06:58.564Z,20
2023-05-02T14:08:04.875Z,19
2023-05-02T14:09:11.124Z,19
2023-05-02T14:10:17.383Z,18
2023-05-02T14:11:22.666Z,20
2023-05-02T14:12:28.933Z,19
2023-05-02T14:13:34.255Z,19
2023-05-02T14:14:39.514Z,18
2023-05-02T14:15:45.740Z,18
2023-05-02T14:16:52.024Z,19
2023-05-02T14:17:58.306Z,17
2023-05-02T14:19:04.573Z,18
2023-05-02T14:20:10.837Z,18
2023-05-02T14:21:17.166Z,17
2023-05-02T14:22:23.425Z,18
2023-05-02T14:23:29.738Z,17
2023-05-02T14:24:35.845Z,17
2023-05-02T14:25:42.254Z,17
2023-05-02T14:26:48.510Z,17
2023-05-02T14:27:54.802Z,16
2023-05-02T14:29:00.075Z,16
2023-05-02T14:30:06.178Z,17
2023-05-02T14:31:12.641Z,17
2023-05-02T14:32:17.727Z,17
2023-05-02T14:33:24.137Z,16
2023-05-02T14:34:30.466Z,16
2023-05-02T14:35:36.703Z,16
2023-05-02T14:36:42.960Z,15
2023-05-02T14:37:49.235Z,15
2023-05-02T14:38:55.355Z,16
2023-05-02T14:40:01.619Z,16
2023-05-02T14:41:08.054Z,16
2023-05-02T14:42:14.356Z,16
2023-05-02T14:43:20.596Z,15
2023-05-02T14:44:26.950Z,15
2023-05-02T14:45:32.186Z,16
2023-05-02T14:46:37.466Z,15
2023-05-02T14:47:43.779Z,15
2023-05-02T14:48:50.051Z,15
2023-05-02T14:49:56.281Z,15
2023-05-02T14:51:01.581Z,15
2023-05-02T14:52:06.861Z,15
2023-05-02T14:53:13.143Z,15
2023-05-02T14:54:19.462Z,15
2023-05-02T14:55:25.527Z,15
2023-05-02T14:56:32.009Z,15
2023-05-02T14:57:38.224Z,17
2023-05-02T14:58:44.570Z,16
2023-05-02T14:59:50.627Z,19
2023-05-02T15:00:57.070Z,16
2023-05-02T15:02:03.268Z,16
2023-05-02T15:03:09.587Z,15
2023-05-02T15:04:15.841Z,16
2023-05-02T15:05:22.173Z,16
2023-05-02T15:06:27.358Z,17
2023-05-02T15:07:33.631Z,17
2023-05-02T15:08:39.950Z,18
2023-05-02T15:09:46.204Z,16
2023-05-02T15:10:52.336Z,17
2023-05-02T15:11:58.777Z,17
2023-05-02T15:13:05.030Z,16
2023-05-02T15:14:11.300Z,18
2023-05-02T15:15:16.584Z,16
2023-05-02T15:16:21.975Z,15
2023-05-02T15:17:28.188Z,16
2023-05-02T15:18:34.452Z,14
2023-05-02T15:19:39.835Z,14
2023-05-02T15:20:44.984Z,15
2023-05-02T15:21:51.298Z,15
2023-05-02T15:22:57.543Z,15
2023-05-02T15:24:03.861Z,15
2023-05-02T15:25:10.128Z,14
2023-05-02T15:26:16.312Z,14
2023-05-02T15:27:22.701Z,15
2023-05-02T15:28:28.865Z,15
2023-05-02T15:29:35.242Z,15
2023-05-02T15:30:41.332Z,15
2023-05-02T15:31:47.633Z,15
2023-05-02T15:32:53.863Z,13
2023-05-02T15:34:00.246Z,14
2023-05-02T15:35:05.423Z,12
2023-05-02T15:36:11.761Z,14
2023-05-02T15:37:18.109Z,15
2023-05-02T15:38:24.408Z,14
2023-05-02T15:39:30.687Z,13
2023-05-02T15:40:36.892Z,15
2023-05-02T15:41:43.065Z,15
2023-05-02T15:42:48.430Z,13
2023-05-02T15:43:53.654Z,14
2023-05-02T15:44:59.112Z,14
2023-05-02T15:46:05.235Z,13
2023-05-02T15:47:10.589Z,15
2023-05-02T15:48:16.859Z,13
2023-05-02T15:49:23.206Z,15
2023-05-02T15:50:29.442Z,14
2023-05-02T15:51:35.697Z,14
2023-05-02T15:52:41.988Z,13
2023-05-02T15:53:48.126Z,13
2023-05-02T15:54:54.478Z,14
2023-05-02T15:56:00.672Z,13
2023-05-02T15:57:07.015Z,13
2023-05-02T15:58:13.317Z,12